Terminal Aerodrome Forecast
Issued by NWS

Home | Current Version | Previous Version | Text Only | Print | Product List | Glossary On
Versions: 1 2 3 4 5 6 7 8 9 10 11 12 13 14
411
FTUS44 KBMX 221120
TAFANB
TAF
KANB 221120Z 2212/2312 08007KT P6SM VCSH BKN023
     FM221400 09011G18KT P6SM VCSH OVC012
     FM221800 10013G23KT 3SM SHRA OVC010
     FM230800 13009KT 5SM BR BKN007=

USA.gov is the U.S. government's official web portal to all federal, state and local government web resources and services.